• Join FlightAware (Why Join?)
  • Login
  • US Flag 
11:10PM EST


 

Airport Tracker/Info


-or-


 

Live Flight TrackerFlight Track Log ✈ GJS3618 ✈ 19-Oct-2013 ✈ KOMA - KDEN

Flight Track Log - Related Links

Times and Time Zones

All times are in EDT time to prevent confusion due to time zone crossing. See the GJS3618 flight status page for this flight to view local times or setup timezone preferences in your user account.

Time Position Orientation Groundspeed Altitude Reporting Facility
EDT Latitude Longitude Course Direction KTS MPH feet Rate Location/Type
07:43AM 41.2931 -95.8919 270° West 151 174 1,400  Level Minneapolis Center
07:43AM 41.2883 -95.8869 141° Southeast 153 176 1,700 1,800 Climbing Minneapolis Center
07:44AM 41.2481 -95.9111 204° Southwest 174 200 3,800 1,920 Climbing Minneapolis Center
07:45AM 41.2483 -95.9389 271° West 178 205 4,800 2,040 Climbing Minneapolis Center
07:45AM 41.2508 -95.9856 274° West 232 267 5,900 1,980 Climbing Minneapolis Center
07:46AM 41.2391 -96.4039 278° West  Level Estimated
07:46AM 41.2519 -96.0075 274° West 214 246 6,800  Level Minneapolis Center
07:47AM 41.2228 -96.5312 270° West  Level Estimated
07:47AM 41.2564 -96.1011 274° West 243 280 9,700  Level Minneapolis Center
07:48AM 41.2063 -96.6584 270° West  Level Estimated
07:48AM 41.2478 -96.1994 263° West 257 296 12,100  Level Minneapolis Center
07:49AM 41.2378 -96.3142 263° West 296 341 13,800 1,860 Climbing Minneapolis Center
07:50AM 41.2267 -96.4378 263° West 326 375 15,900 2,340 Climbing Minneapolis Center
07:51AM 41.2131 -96.5906 263° West 343 395 18,600 2,280 Climbing Minneapolis Center
07:52AM 41.2014 -96.7200 263° West 349 402 20,500 1,800 Climbing Minneapolis Center
07:53AM 41.1906 -96.8511 264° West 355 409 22,300 1,680 Climbing Minneapolis Center
07:54AM 41.1783 -96.9856 263° West 364 419 23,900 1,500 Climbing Minneapolis Center
07:55AM 41.1661 -97.1225 263° West 372 428 25,400 1,380 Climbing Minneapolis Center
07:56AM 41.1539 -97.2606 263° West 377 434 26,800 1,320 Climbing Minneapolis Center
07:57AM 41.1414 -97.4069 264° West 384 442 28,100 1,200 Climbing Minneapolis Center
07:58AM 41.1272 -97.5500 263° West 390 449 29,300 1,080 Climbing Minneapolis Center
07:59AM 41.1128 -97.6944 262° West 393 452 30,300 1,020 Climbing Minneapolis Center
08:00AM 41.0983 -97.8422 263° West 399 459 31,400 1,020 Climbing Minneapolis Center
08:01AM 41.0839 -97.9897 263° West 403 464 32,400 1,080 Climbing Minneapolis Center
08:02AM 41.0689 -98.1361 262° West 402 463 33,600 1,140 Climbing Minneapolis Center
08:03AM 41.0550 -98.2817 263° West 398 458 34,800 960 Climbing Minneapolis Center
08:04AM 41.0406 -98.4258 262° West 394 453 35,600 540 Climbing Minneapolis Center
08:05AM 41.0269 -98.5639 263° West 397 457 36,000 180 Climbing Minneapolis Center
08:06AM 41.0100 -98.7114 261° West 403 464 36,000  Level Minneapolis Center
08:07AM 40.9947 -98.8611 262° West 409 471 36,000  Level Minneapolis Center
08:08AM 40.9786 -99.0061 262° West 402 463 36,000  Level Minneapolis Center
08:09AM 40.9606 -99.1683 262° West 397 457 36,000  Level Minneapolis Center
08:10AM 40.9453 -99.3128 262° West 396 456 36,000  Level Minneapolis Center
08:11AM 40.9289 -99.4583 262° West 398 458 36,000  Level Minneapolis Center
08:12AM 40.9128 -99.6044 262° West 399 459 36,000  Level Minneapolis Center
08:13AM 40.8961 -99.7503 261° West 401 461 36,000  Level Minneapolis Center
08:14AM 40.8794 -99.8925 261° West 395 455 36,000  Level Minneapolis Center
08:15AM 40.8633 -100.0303 261° West 385 443 36,000  Level Minneapolis Center
08:16AM 40.8472 -100.1692 261° West 383 441 36,000  Level Minneapolis Center
08:17AM 40.8300 -100.3114 261° West 387 445 36,000  Level Minneapolis Center
08:18AM 40.8450 -100.4544 278° West 398 458 36,000  Level Minneapolis Center
08:19AM 40.8736 -100.5944 285° West 398 458 36,000  Level Minneapolis Center
08:20AM 40.9067 -100.7722 284° West 388 447 36,000  Level Denver Center
08:21AM 40.9333 -100.9014 285° West 385 443 36,000  Level Denver Center
08:22AM 40.9219 -101.0581 265° West 392 451 36,000  Level Denver Center
08:23AM 40.8881 -101.1906 251° West 399 459 36,000  Level Denver Center
08:24AM 40.8556 -101.3242 252° West 399 459 36,000  Level Denver Center
08:25AM 40.8161 -101.4781 251° West 398 458 36,000  Level Denver Center
08:26AM 40.7822 -101.6122 252° West 403 464 36,000  Level Denver Center
08:27AM 40.7472 -101.7467 251° West 404 465 36,000  Level Denver Center
08:28AM 40.7067 -101.9050 251° West 408 470 36,000  Level Denver Center
08:29AM 40.6717 -102.0403 251° West 409 471 36,000  Level Denver Center
08:30AM 40.6367 -102.1767 251° West 411 473 36,000  Level Denver Center
08:31AM 40.5936 -102.3367 251° West 415 478 36,000 -60 Level Denver Center
08:32AM 40.5586 -102.4731 251° West 413 475 35,900 -720 Descending Denver Center
08:33AM 40.5214 -102.6089 250° West 413 475 34,600 -1,740 Descending Denver Center
08:34AM 40.4789 -102.7664 251° West 416 479 32,400 -2,100 Descending Denver Center
08:35AM 40.4422 -102.9053 251° West 405 466 30,400 -1,860 Descending Denver Center
08:36AM 40.4061 -103.0394 251° West 393 452 28,700 -1,740 Descending Denver Center
08:37AM 40.3708 -103.1681 250° West 378 435 27,000 -1,740 Descending Denver Center
08:38AM 40.3361 -103.2975 251° West 377 434 25,300 -1,680 Descending Denver Center
08:39AM 40.3017 -103.4233 250° West 369 425 23,700 -1,560 Descending Denver Center
08:40AM 40.2678 -103.5450 250° West 360 414 22,200 -1,500 Descending Denver Center
08:41AM 40.2361 -103.6678 251° West 357 411 20,700 -1,560 Descending Denver Center
08:42AM 40.2139 -103.7853 256° West 332 382 19,100 -1,500 Descending Denver Center
08:43AM 40.2056 -103.8953 264° West 306 352 17,700 -1,440 Descending Denver Center
08:44AM 40.2139 -104.0014 276° West 293 337 16,300 -1,380 Descending Denver Center
08:45AM 40.2242 -104.1064 277° West 291 335 15,000 -1,320 Descending Denver Center
08:46AM 40.2339 -104.2083 277° West 285 328 13,700 -1,320 Descending Denver Center
08:47AM 40.2425 -104.3064 277° West 275 316 12,400 -1,320 Descending Denver Center
08:48AM 40.2061 -104.4061 244° Southwest 284 327 11,100 -1,260 Descending Denver Center
08:49AM 40.1700 -104.4972 243° Southwest 283 326 9,900 -1,140 Descending Denver Center
08:50AM 40.1322 -104.5864 241° Southwest 282 325 8,900 -780 Descending Denver Center
08:51AM 40.1000 -104.6167 216° Southwest 250 288 8,700 -600 Descending Denver TRACON
08:52AM 40.0333 -104.6500 201° Southwest 211 243 8,000 -780 Descending Denver TRACON
08:53AM 39.9833 -104.6833 207° Southwest 203 234 7,200 -900 Descending Denver TRACON
08:54AM 39.9333 -104.6833 180° South 155 178 6,200 -780 Descending Denver TRACON
08:56AM 39.8858 -104.6872 184° South 135 155 5,400 -600 Descending Denver Center